Time;durP1;ratioP1;P1;durP2;ratioP2;P2;SDS_P1;SDS_P2;PMS_P1;PMS_P2;Temp;Humidity;BMP_temperature;BMP_pressure;BME280_temperature;BME280_humidity;BME280_pressure;Samples;Min_cycle;Max_cycle;Signal;HPM_P1;HPM_P2
2022/08/16 00:01:22;;;;;;;3.40;2.45;;;23.00;93.10;;;;;;5055312;28;20232;-86
2022/08/16 00:03:53;;;;;;;3.00;2.75;;;23.00;93.10;;;;;;5055116;28;20213;-85
2022/08/16 00:06:22;;;;;;;4.80;2.33;;;23.10;93.10;;;;;;5055528;28;20214;-85
2022/08/16 00:08:51;;;;;;;2.35;2.25;;;23.10;93.10;;;;;;5054822;28;20298;-85
2022/08/16 00:11:21;;;;;;;2.78;2.40;;;23.10;93.00;;;;;;5054896;28;20268;-86
2022/08/16 00:13:52;;;;;;;2.60;2.40;;;23.10;92.90;;;;;;5055469;28;20217;-86
2022/08/16 00:16:23;;;;;;;2.42;2.28;;;23.20;93.30;;;;;;5055158;28;20213;-85
2022/08/16 00:19:13;;;;;;;2.08;1.98;;;23.20;93.10;;;;;;5054474;28;20208;-85
2022/08/16 00:21:42;;;;;;;2.72;2.53;;;23.20;92.80;;;;;;5054721;28;20281;-85
2022/08/16 00:24:12;;;;;;;2.08;1.92;;;23.20;92.70;;;;;;5054630;28;20198;-85
2022/08/16 00:26:58;;;;;;;1.90;1.80;;;23.30;92.50;;;;;;5055211;28;20301;-86
2022/08/16 00:29:29;;;;;;;2.13;1.90;;;23.30;92.40;;;;;;5054534;28;20202;-85
2022/08/16 00:31:59;;;;;;;2.17;2.08;;;23.30;92.30;;;;;;5054412;28;20234;-84
2022/08/16 00:34:34;;;;;;;2.40;2.20;;;23.40;92.30;;;;;;5054654;28;20209;-86
2022/08/16 00:37:20;;;;;;;2.10;2.00;;;23.40;92.30;;;;;;5054566;28;20213;-85
2022/08/16 00:39:52;;;;;;;2.38;2.17;;;23.40;92.30;;;;;;5054524;28;20205;-86
2022/08/16 00:42:26;;;;;;;1.85;1.75;;;23.40;92.30;;;;;;5054579;28;20236;-86
2022/08/16 00:45:05;;;;;;;2.17;2.05;;;23.40;92.30;;;;;;5054476;28;20220;-85
2022/08/16 00:47:39;;;;;;;2.53;2.33;;;23.50;92.50;;;;;;5054556;28;20236;-86
2022/08/16 00:50:15;;;;;;;2.22;2.03;;;23.50;92.70;;;;;;5054147;28;20209;-86
2022/08/16 00:52:44;;;;;;;1.90;1.80;;;23.50;92.70;;;;;;5054095;28;20258;-86
2022/08/16 00:55:20;;;;;;;3.45;2.35;;;23.50;92.90;;;;;;5054407;28;20202;-86
2022/08/16 00:57:51;;;;;;;2.58;2.38;;;23.50;93.00;;;;;;5054130;28;20289;-88
2022/08/16 01:00:32;;;;;;;3.15;2.50;;;23.50;93.10;;;;;;5053995;28;20261;-85
2022/08/16 01:03:06;;;;;;;2.28;2.15;;;23.50;93.10;;;;;;5054015;28;20209;-86
2022/08/16 01:05:40;;;;;;;2.63;2.42;;;23.50;93.30;;;;;;5053988;28;20210;-86
2022/08/16 01:08:11;;;;;;;2.55;2.35;;;23.40;93.60;;;;;;5054341;28;20205;-85
2022/08/16 01:11:00;;;;;;;2.72;2.53;;;23.30;94.50;;;;;;5053761;28;20229;-86
2022/08/16 01:13:31;;;;;;;3.17;2.85;;;23.10;95.30;;;;;;5053521;28;20229;-86
2022/08/16 01:16:13;;;;;;;3.83;3.53;;;23.00;95.90;;;;;;5053599;28;20232;-86
2022/08/16 01:18:51;;;;;;;5.75;2.67;;;22.80;96.70;;;;;;5053794;28;20216;-86
2022/08/16 01:21:31;;;;;;;2.90;2.65;;;22.80;97.30;;;;;;5053782;28;20230;-86
2022/08/16 01:24:23;;;;;;;2.47;2.28;;;22.60;98.10;;;;;;5053925;28;20240;-86
2022/08/16 01:27:16;;;;;;;2.47;2.22;;;22.50;99.00;;;;;;5053418;28;20209;-86
2022/08/16 01:29:49;;;;;;;4.22;2.03;;;22.30;99.90;;;;;;5053415;28;20214;-86
2022/08/16 01:32:28;;;;;;;3.30;2.90;;;22.10;99.90;;;;;;5053425;28;20221;-86
2022/08/16 01:35:02;;;;;;;2.65;2.45;;;22.00;99.90;;;;;;5053597;28;20209;-86
2022/08/16 01:37:39;;;;;;;2.28;2.08;;;21.90;99.90;;;;;;5056785;28;20220;-86
2022/08/16 01:40:12;;;;;;;2.60;2.10;;;21.80;99.90;;;;;;5065883;28;20201;-85
2022/08/16 01:42:45;;;;;;;2.15;2.05;;;21.80;99.90;;;;;;5060102;28;20197;-86
2022/08/16 01:45:18;;;;;;;2.55;2.35;;;21.70;99.90;;;;;;5053622;28;20284;-86
2022/08/16 01:47:50;;;;;;;2.53;2.33;;;21.60;99.90;;;;;;5053159;28;20212;-86
2022/08/16 01:50:21;;;;;;;3.00;2.30;;;21.60;99.90;;;;;;5053049;28;20264;-86
2022/08/16 01:53:10;;;;;;;7.07;2.58;;;21.60;99.90;;;;;;5052286;28;20222;-86
2022/08/16 01:55:41;;;;;;;2.33;2.15;;;21.60;99.90;;;;;;5053279;28;20202;-86
2022/08/16 01:58:22;;;;;;;2.83;2.35;;;21.60;99.90;;;;;;5053126;28;20201;-86
2022/08/16 02:00:50;;;;;;;2.38;2.15;;;21.60;99.90;;;;;;5052716;28;20286;-86
2022/08/16 02:03:22;;;;;;;2.95;2.35;;;21.60;99.90;;;;;;5053171;28;20205;-86
2022/08/16 02:05:53;;;;;;;2.80;2.60;;;21.60;99.90;;;;;;5053348;28;20227;-86
2022/08/16 02:08:22;;;;;;;2.38;1.98;;;21.60;99.90;;;;;;5052572;28;20209;-86
2022/08/16 02:11:05;;;;;;;2.90;2.70;;;21.60;99.90;;;;;;5053050;28;20233;-86
2022/08/16 02:13:34;;;;;;;1.92;1.83;;;21.50;99.90;;;;;;5052772;28;20222;-85
2022/08/16 02:16:10;;;;;;;2.60;2.15;;;21.50;99.90;;;;;;5052886;28;20208;-86
2022/08/16 02:18:46;;;;;;;2.75;2.55;;;21.50;99.90;;;;;;5052960;28;20209;-86
2022/08/16 02:21:15;;;;;;;2.35;1.73;;;21.50;99.90;;;;;;5052354;28;20227;-86
2022/08/16 02:23:59;;;;;;;2.90;2.50;;;21.50;99.90;;;;;;5052722;28;20300;-85
2022/08/16 02:26:29;;;;;;;2.70;2.28;;;21.40;99.90;;;;;;5052681;28;20205;-86
2022/08/16 02:29:01;;;;;;;1.98;1.80;;;21.40;99.90;;;;;;5052679;28;20217;-86
2022/08/16 02:31:30;;;;;;;3.50;2.78;;;21.40;99.90;;;;;;5052742;28;20321;-86
2022/08/16 02:34:20;;;;;;;3.78;2.42;;;21.30;99.90;;;;;;5052448;28;20221;-86
2022/08/16 02:37:02;;;;;;;1.77;1.67;;;21.30;99.90;;;;;;5052553;28;20217;-86
2022/08/16 02:39:30;;;;;;;1.80;1.70;;;21.30;99.90;;;;;;5052556;28;20292;-86
2022/08/16 02:42:02;;;;;;;2.15;2.03;;;21.20;99.90;;;;;;5052843;28;20230;-86
2022/08/16 02:44:30;;;;;;;2.42;2.22;;;21.20;99.90;;;;;;5052788;28;20202;-85
2022/08/16 02:46:59;;;;;;;4.30;2.08;;;21.20;99.90;;;;;;5052521;28;20265;-86
2022/08/16 02:49:29;;;;;;;2.03;1.90;;;21.20;99.90;;;;;;5052784;28;20210;-86
2022/08/16 02:52:18;;;;;;;2.28;2.03;;;21.20;99.90;;;;;;5052659;28;20225;-86
2022/08/16 02:54:56;;;;;;;1.95;1.85;;;21.10;99.90;;;;;;5052533;28;20279;-86
2022/08/16 02:57:28;;;;;;;1.85;1.67;;;21.10;99.90;;;;;;5052512;28;20289;-87
2022/08/16 02:59:57;;;;;;;6.30;2.53;;;21.10;99.90;;;;;;5052741;28;20220;-86
2022/08/16 03:02:26;;;;;;;2.30;2.10;;;21.10;99.90;;;;;;5052356;28;20222;-87
2022/08/16 03:04:59;;;;;;;1.90;1.80;;;21.00;99.90;;;;;;5053719;28;20257;-86
2022/08/16 03:07:28;;;;;;;1.92;1.83;;;21.00;99.90;;;;;;5056389;28;20294;-86
2022/08/16 03:10:04;;;;;;;2.70;2.13;;;21.00;99.90;;;;;;5056027;28;20239;-86
2022/08/16 03:12:35;;;;;;;1.70;1.60;;;21.00;99.90;;;;;;5056416;28;20257;-87
2022/08/16 03:15:23;;;;;;;2.13;1.98;;;21.00;99.90;;;;;;5056536;28;20318;-86
2022/08/16 03:17:54;;;;;;;2.10;1.90;;;20.90;99.90;;;;;;5056256;28;20209;-86
2022/08/16 03:20:23;;;;;;;2.10;1.95;;;20.90;99.90;;;;;;5055745;28;20220;-86
2022/08/16 03:22:59;;;;;;;6.10;1.90;;;20.90;99.90;;;;;;5056038;28;20216;-86
2022/08/16 03:25:29;;;;;;;2.45;1.58;;;20.90;99.90;;;;;;5056303;28;20210;-85
2022/08/16 03:28:14;;;;;;;1.40;1.30;;;20.90;99.90;;;;;;5055967;28;20210;-86
2022/08/16 03:30:45;;;;;;;3.05;2.22;;;20.90;99.90;;;;;;5055571;28;20238;-86
2022/08/16 03:33:14;;;;;;;2.25;1.65;;;20.90;99.90;;;;;;5056459;28;20224;-86
2022/08/16 03:35:43;;;;;;;2.33;2.00;;;20.90;99.90;;;;;;5055835;28;20285;-86
2022/08/16 03:38:15;;;;;;;1.80;1.70;;;21.00;99.90;;;;;;5055776;28;20226;-86
2022/08/16 03:41:03;;;;;;;1.75;1.65;;;20.90;99.90;;;;;;5055632;28;20243;-86
2022/08/16 03:43:42;;;;;;;1.65;1.55;;;21.00;99.90;;;;;;5055617;28;20205;-86
2022/08/16 03:46:21;;;;;;;1.77;1.67;;;21.00;99.90;;;;;;5055808;28;20257;-86
2022/08/16 03:49:10;;;;;;;2.78;2.28;;;21.00;99.90;;;;;;5054809;28;20205;-85
2022/08/16 03:51:40;;;;;;;1.70;1.60;;;21.00;99.90;;;;;;5055441;28;20237;-86
2022/08/16 03:54:08;;;;;;;1.70;1.52;;;21.00;99.90;;;;;;5055344;28;20300;-86
2022/08/16 03:56:40;;;;;;;1.73;1.63;;;21.00;99.90;;;;;;5055369;28;20205;-86
2022/08/16 03:59:26;;;;;;;1.85;1.75;;;21.00;99.90;;;;;;5055014;28;20209;-87
2022/08/16 04:01:57;;;;;;;2.83;2.13;;;21.10;99.90;;;;;;5055452;28;20287;-85
2022/08/16 04:04:25;;;;;;;1.50;1.40;;;21.10;99.90;;;;;;5055250;28;20248;-86
2022/08/16 04:07:02;;;;;;;1.73;1.63;;;21.10;99.90;;;;;;5055602;28;20291;-86
2022/08/16 04:09:31;;;;;;;1.90;1.80;;;21.10;99.90;;;;;;5055092;28;20232;-86
2022/08/16 04:12:05;;;;;;;2.58;2.13;;;21.10;99.90;;;;;;5054924;28;20249;-86
2022/08/16 04:14:40;;;;;;;2.92;1.77;;;21.10;99.90;;;;;;5054847;28;20225;-86
2022/08/16 04:17:14;;;;;;;1.67;1.58;;;21.10;99.90;;;;;;5054628;28;20205;-86
2022/08/16 04:19:43;;;;;;;1.48;1.38;;;21.10;99.90;;;;;;5055243;28;20209;-86
2022/08/16 04:22:13;;;;;;;1.55;1.45;;;21.10;99.90;;;;;;5055087;28;20222;-86
2022/08/16 04:24:44;;;;;;;1.10;1.10;;;21.10;99.90;;;;;;5054845;28;20209;-86
2022/08/16 04:27:22;;;;;;;2.15;1.95;;;21.20;99.90;;;;;;5054899;28;20217;-85
2022/08/16 04:29:53;;;;;;;2.13;1.92;;;21.20;99.90;;;;;;5054597;28;20225;-86
2022/08/16 04:32:30;;;;;;;1.60;1.50;;;21.20;99.90;;;;;;5054358;28;20237;-86
2022/08/16 04:34:59;;;;;;;1.70;1.60;;;21.20;99.90;;;;;;5054645;28;20236;-86
2022/08/16 04:37:34;;;;;;;1.55;1.45;;;21.30;99.90;;;;;;5054867;28;20221;-86
2022/08/16 04:40:11;;;;;;;1.58;1.48;;;21.30;99.90;;;;;;5054724;28;20212;-86
2022/08/16 04:42:49;;;;;;;1.67;1.58;;;21.40;99.90;;;;;;5054455;28;20225;-86
2022/08/16 04:45:20;;;;;;;1.70;1.60;;;21.40;99.90;;;;;;5054716;28;20251;-86
2022/08/16 04:48:05;;;;;;;1.70;1.60;;;21.40;99.90;;;;;;5054673;28;20213;-86
2022/08/16 04:50:33;;;;;;;2.08;1.90;;;21.50;99.90;;;;;;5053986;28;20263;-87
2022/08/16 04:53:02;;;;;;;1.40;1.30;;;21.50;99.90;;;;;;5054624;28;20217;-87
2022/08/16 04:55:32;;;;;;;2.38;1.80;;;21.50;99.90;;;;;;5054369;28;20230;-87
2022/08/16 04:58:07;;;;;;;1.88;1.77;;;21.60;99.90;;;;;;5054138;28;20209;-86
2022/08/16 05:00:57;;;;;;;1.65;1.55;;;21.60;99.90;;;;;;5054041;28;20221;-87
2022/08/16 05:03:25;;;;;;;2.00;1.77;;;21.60;99.90;;;;;;5054318;28;20275;-87
2022/08/16 05:05:54;;;;;;;2.15;1.92;;;21.70;99.90;;;;;;5054121;28;20202;-87
2022/08/16 05:08:30;;;;;;;2.22;1.70;;;21.70;99.90;;;;;;5053846;28;20209;-86
2022/08/16 05:11:01;;;;;;;2.85;1.50;;;21.80;99.90;;;;;;5054493;28;20304;-86
2022/08/16 05:13:35;;;;;;;2.20;2.00;;;21.80;99.90;;;;;;5064236;28;20213;-87
2022/08/16 05:16:11;;;;;;;1.67;1.58;;;21.80;99.90;;;;;;5072489;28;20273;-86
2022/08/16 05:18:51;;;;;;;1.67;1.58;;;21.90;99.90;;;;;;5055901;28;20216;-87
2022/08/16 05:21:20;;;;;;;3.08;2.10;;;21.90;99.90;;;;;;5053631;28;20249;-86
2022/08/16 05:23:50;;;;;;;1.95;1.85;;;22.00;99.90;;;;;;5053345;28;20210;-86
2022/08/16 05:26:26;;;;;;;1.75;1.60;;;22.00;99.90;;;;;;5053713;28;20212;-87
2022/08/16 05:28:56;;;;;;;1.35;1.25;;;22.10;99.90;;;;;;5053374;28;20285;-87
2022/08/16 05:31:27;;;;;;;1.90;1.80;;;22.10;99.90;;;;;;5053658;28;20257;-87
2022/08/16 05:33:59;;;;;;;1.75;1.65;;;22.10;99.90;;;;;;5053494;28;20237;-87
2022/08/16 05:36:27;;;;;;;3.40;1.52;;;22.10;99.90;;;;;;5053092;28;20214;-87
2022/08/16 05:39:06;;;;;;;1.90;1.80;;;22.10;99.90;;;;;;5053188;28;20204;-86
2022/08/16 05:41:37;;;;;;;2.60;1.88;;;22.10;99.90;;;;;;5053539;28;20233;-86
2022/08/16 05:44:15;;;;;;;1.60;1.50;;;22.10;99.90;;;;;;5053726;28;20208;-87
2022/08/16 05:46:55;;;;;;;2.17;1.98;;;22.10;99.90;;;;;;5052835;28;20301;-86
2022/08/16 05:49:29;;;;;;;1.90;1.70;;;22.20;99.90;;;;;;5052685;28;20205;-86
2022/08/16 05:52:08;;;;;;;1.92;1.83;;;22.20;99.90;;;;;;5053360;28;20233;-87
2022/08/16 05:54:41;;;;;;;1.75;1.65;;;22.20;99.90;;;;;;5053217;28;20217;-86
2022/08/16 05:57:16;;;;;;;2.25;1.85;;;22.30;99.90;;;;;;5053618;28;20243;-86
2022/08/16 05:59:46;;;;;;;1.98;1.88;;;22.40;99.90;;;;;;5053014;28;20206;-86
2022/08/16 06:02:20;;;;;;;1.70;1.58;;;22.50;99.90;;;;;;5052947;28;20240;-87
2022/08/16 06:04:56;;;;;;;1.55;1.45;;;22.50;99.90;;;;;;5052957;28;20384;-86
2022/08/16 06:07:24;;;;;;;1.70;1.60;;;22.60;99.90;;;;;;5053086;28;20252;-87
2022/08/16 06:09:57;;;;;;;1.55;1.30;;;22.60;99.90;;;;;;5053139;28;20224;-86
2022/08/16 06:12:27;;;;;;;1.65;1.55;;;22.60;99.90;;;;;;5053017;28;20217;-86
2022/08/16 06:14:58;;;;;;;3.08;1.95;;;22.70;99.90;;;;;;5053016;28;20221;-86
2022/08/16 06:17:29;;;;;;;1.75;1.65;;;22.80;99.90;;;;;;5052998;28;20332;-87
2022/08/16 06:20:14;;;;;;;1.75;1.60;;;22.80;99.90;;;;;;5053144;28;20224;-87
2022/08/16 06:22:51;;;;;;;2.17;1.98;;;22.90;99.90;;;;;;5052942;28;20205;-87
2022/08/16 06:25:31;;;;;;;1.65;1.55;;;22.90;99.90;;;;;;5052845;28;20201;-86
2022/08/16 06:28:08;;;;;;;1.88;1.77;;;23.00;99.90;;;;;;5052977;28;20259;-87
2022/08/16 06:30:44;;;;;;;2.00;1.90;;;23.10;99.90;;;;;;5052287;28;20237;-87
2022/08/16 06:33:17;;;;;;;1.48;1.38;;;23.20;99.90;;;;;;5052726;28;20208;-86
2022/08/16 06:35:50;;;;;;;2.13;1.67;;;23.20;99.90;;;;;;5052557;28;20236;-86
2022/08/16 06:38:27;;;;;;;3.53;1.50;;;23.20;99.90;;;;;;5053457;28;20212;-86
2022/08/16 06:41:00;;;;;;;8.98;2.05;;;23.30;99.90;;;;;;5059118;28;20234;-86
2022/08/16 06:43:29;;;;;;;2.20;2.08;;;23.40;99.90;;;;;;5059208;28;20205;-86
2022/08/16 06:45:57;;;;;;;2.00;1.80;;;23.40;99.90;;;;;;5059217;28;20198;-86
2022/08/16 06:48:27;;;;;;;3.67;1.45;;;23.50;99.90;;;;;;5058542;28;20280;-86
2022/08/16 06:51:01;;;;;;;1.60;1.50;;;23.50;99.90;;;;;;5058930;28;20229;-87
2022/08/16 06:53:32;;;;;;;1.77;1.67;;;23.60;99.90;;;;;;5059341;28;20210;-87
2022/08/16 06:56:05;;;;;;;2.38;1.95;;;23.70;99.90;;;;;;5059012;28;20221;-86
2022/08/16 06:58:50;;;;;;;1.73;1.50;;;23.70;99.90;;;;;;5058910;28;20219;-87
2022/08/16 07:01:18;;;;;;;2.95;1.70;;;23.70;99.90;;;;;;5058800;28;20309;-86
2022/08/16 07:04:08;;;;;;;2.42;1.77;;;23.90;99.90;;;;;;5058577;28;20205;-86
2022/08/16 07:06:40;;;;;;;1.67;1.58;;;23.90;99.90;;;;;;5059297;28;20202;-87
2022/08/16 07:09:11;;;;;;;2.03;1.83;;;24.00;99.90;;;;;;5059033;28;20206;-87
2022/08/16 07:11:43;;;;;;;1.70;1.60;;;24.20;99.90;;;;;;5058977;28;20226;-87
2022/08/16 07:14:18;;;;;;;1.83;1.73;;;24.30;99.90;;;;;;5058751;28;20270;-86
2022/08/16 07:16:52;;;;;;;3.50;1.77;;;24.30;99.90;;;;;;5059012;28;20221;-86
2022/08/16 07:19:23;;;;;;;1.85;1.63;;;24.40;99.90;;;;;;5058650;28;20205;-87
2022/08/16 07:22:11;;;;;;;1.70;1.60;;;24.50;99.90;;;;;;5058664;28;20221;-86
2022/08/16 07:25:00;;;;;;;1.50;1.40;;;24.50;99.90;;;;;;5058679;28;20201;-86
2022/08/16 07:27:29;;;;;;;1.60;1.50;;;24.60;99.90;;;;;;5058983;28;20280;-87
2022/08/16 07:30:00;;;;;;;1.83;1.60;;;24.70;99.90;;;;;;5058652;28;20226;-87
2022/08/16 07:32:31;;;;;;;1.58;1.48;;;24.80;99.80;;;;;;5058455;28;20291;-86
2022/08/16 07:35:04;;;;;;;1.60;1.50;;;24.90;99.50;;;;;;5058978;28;20233;-86
2022/08/16 07:37:32;;;;;;;1.98;1.88;;;24.90;99.20;;;;;;5059093;28;20214;-87
2022/08/16 07:40:00;;;;;;;1.77;1.67;;;25.10;99.20;;;;;;5058637;28;20212;-86
2022/08/16 07:42:38;;;;;;;1.70;1.60;;;25.20;98.80;;;;;;5058563;28;20234;-87
2022/08/16 07:45:08;;;;;;;1.70;1.60;;;25.40;98.20;;;;;;5058547;28;20284;-86
2022/08/16 07:47:37;;;;;;;1.63;1.52;;;25.60;98.00;;;;;;5058493;28;20214;-87
2022/08/16 07:50:12;;;;;;;1.80;1.70;;;25.80;97.70;;;;;;5057289;28;20202;-86
2022/08/16 07:53:01;;;;;;;3.25;1.80;;;26.00;97.50;;;;;;5055269;28;20205;-86
2022/08/16 07:55:29;;;;;;;1.85;1.75;;;26.30;96.60;;;;;;5054969;28;20224;-87
2022/08/16 07:58:16;;;;;;;1.70;1.60;;;26.60;96.20;;;;;;5055406;28;20255;-87
2022/08/16 08:01:04;;;;;;;1.75;1.65;;;26.70;96.00;;;;;;5055444;28;20217;-87
2022/08/16 08:03:41;;;;;;;1.42;1.42;;;26.70;95.60;;;;;;5055457;28;20202;-86
2022/08/16 08:06:17;;;;;;;1.75;1.65;;;26.70;95.50;;;;;;5055542;28;20211;-87
2022/08/16 08:08:46;;;;;;;2.38;1.88;;;27.10;95.20;;;;;;5055396;28;20218;-86
2022/08/16 08:11:20;;;;;;;1.75;1.65;;;27.30;94.60;;;;;;5054967;28;20245;-88
2022/08/16 08:13:51;;;;;;;1.70;1.60;;;27.40;94.40;;;;;;5055498;28;20216;-86
2022/08/16 08:16:21;;;;;;;1.77;1.67;;;27.70;93.80;;;;;;5055022;28;20225;-86
2022/08/16 08:19:00;;;;;;;2.58;2.05;;;28.00;93.00;;;;;;5054950;28;20217;-86
2022/08/16 08:21:33;;;;;;;1.77;1.60;;;28.10;92.70;;;;;;5054863;28;20257;-85
2022/08/16 08:24:23;;;;;;;2.13;1.60;;;28.40;92.60;;;;;;5054642;28;20296;-88
2022/08/16 08:27:00;;;;;;;1.70;1.60;;;28.80;91.90;;;;;;5054912;28;20225;-87
2022/08/16 08:29:31;;;;;;;2.03;1.85;;;28.80;91.70;;;;;;5054822;28;20237;-85
2022/08/16 08:32:06;;;;;;;1.30;1.30;;;29.10;91.40;;;;;;5054613;28;20241;-85
2022/08/16 08:34:55;;;;;;;2.00;1.80;;;29.40;90.70;;;;;;5054565;28;20205;-86
2022/08/16 08:37:32;;;;;;;1.85;1.75;;;29.30;90.40;;;;;;5054369;28;20245;-86
2022/08/16 08:40:21;;;;;;;1.48;1.38;;;29.00;90.20;;;;;;5054083;28;20208;-86
2022/08/16 08:42:53;;;;;;;1.60;1.50;;;29.10;90.80;;;;;;5054677;28;20213;-85
2022/08/16 08:45:38;;;;;;;1.52;1.42;;;29.20;89.50;;;;;;5054560;28;20221;-85
2022/08/16 08:48:19;;;;;;;2.03;1.80;;;29.40;89.10;;;;;;5054147;28;20233;-86
2022/08/16 08:51:03;;;;;;;1.92;1.83;;;29.80;87.60;;;;;;5068162;28;20233;-85
2022/08/16 08:53:33;;;;;;;2.13;1.77;;;29.90;86.50;;;;;;5069071;28;20201;-86
2022/08/16 08:56:01;;;;;;;1.85;1.75;;;29.50;87.20;;;;;;5054254;28;20248;-85
2022/08/16 08:58:49;;;;;;;2.40;1.80;;;29.70;86.70;;;;;;5053688;28;20210;-85
2022/08/16 09:01:25;;;;;;;2.10;1.77;;;30.20;85.10;;;;;;5053984;28;20233;-85
2022/08/16 09:04:05;;;;;;;2.03;1.92;;;30.20;84.20;;;;;;5053467;28;20205;-85
2022/08/16 09:06:34;;;;;;;2.08;1.92;;;30.70;84.30;;;;;;5054059;28;20198;-86
2022/08/16 09:09:12;;;;;;;5.68;2.08;;;31.10;82.10;;;;;;5054057;28;20208;-85
2022/08/16 09:11:44;;;;;;;1.98;1.80;;;31.50;81.20;;;;;;5053986;28;20225;-86
2022/08/16 09:14:20;;;;;;;1.92;1.80;;;31.70;80.70;;;;;;5054252;28;20215;-85
2022/08/16 09:16:51;;;;;;;2.20;1.73;;;31.40;80.10;;;;;;5053781;28;20256;-86
2022/08/16 09:19:31;;;;;;;2.83;1.98;;;31.50;79.90;;;;;;5053833;28;20205;-86
2022/08/16 09:22:01;;;;;;;1.63;1.55;;;31.70;81.70;;;;;;5053601;28;20248;-86
2022/08/16 09:24:31;;;;;;;1.70;1.60;;;32.20;78.40;;;;;;5053731;28;20205;-86
2022/08/16 09:27:19;;;;;;;2.25;2.00;;;32.30;77.80;;;;;;5053316;28;20201;-86
2022/08/16 09:29:47;;;;;;;1.55;1.45;;;32.40;79.40;;;;;;5053565;28;20213;-86
2022/08/16 09:32:28;;;;;;;1.85;1.75;;;32.50;77.20;;;;;;5053636;28;20291;-86
2022/08/16 09:34:58;;;;;;;2.00;1.90;;;32.80;76.10;;;;;;5053431;28;20236;-86
2022/08/16 09:37:27;;;;;;;2.10;2.00;;;32.60;76.20;;;;;;5053419;28;20221;-85
2022/08/16 09:39:59;;;;;;;1.73;1.63;;;32.30;76.40;;;;;;5053201;28;20228;-86
2022/08/16 09:42:28;;;;;;;1.75;1.65;;;32.60;76.80;;;;;;5053471;28;20243;-86
2022/08/16 09:44:57;;;;;;;6.60;1.80;;;33.10;75.20;;;;;;5053377;28;20311;-86
2022/08/16 09:47:43;;;;;;;1.58;1.48;;;34.00;76.60;;;;;;5053514;28;20205;-86
2022/08/16 09:50:28;;;;;;;2.30;1.58;;;34.60;71.60;;;;;;5053075;28;20282;-86
2022/08/16 09:53:10;;;;;;;2.33;1.95;;;35.00;70.20;;;;;;5053489;28;20293;-86
2022/08/16 09:55:48;;;;;;;1.80;1.70;;;35.20;68.90;;;;;;5053094;28;20212;-87
2022/08/16 09:58:18;;;;;;;1.90;1.80;;;35.20;69.30;;;;;;5052946;28;20225;-86
2022/08/16 10:01:07;;;;;;;1.67;1.58;;;35.10;68.70;;;;;;5052672;28;20229;-86
2022/08/16 10:03:38;;;;;;;1.98;1.88;;;34.80;68.50;;;;;;5053088;28;20209;-86
2022/08/16 10:06:27;;;;;;;1.75;1.65;;;34.10;69.20;;;;;;5052951;28;20213;-86
2022/08/16 10:09:01;;;;;;;1.65;1.55;;;33.70;70.30;;;;;;5053178;28;20207;-86
2022/08/16 10:14:21;;;;;;;1.90;1.80;;;33.40;70.50;;;;;;5052705;28;20304;-87
2022/08/16 10:16:52;;;;;;;1.45;1.42;;;33.70;70.20;;;;;;5053038;28;20221;-86
2022/08/16 10:19:29;;;;;;;1.75;1.65;;;33.80;70.00;;;;;;5052587;28;20199;-86
2022/08/16 10:21:59;;;;;;;1.80;1.70;;;34.10;69.40;;;;;;5052458;28;20235;-86
2022/08/16 10:24:33;;;;;;;2.13;1.92;;;34.20;68.80;;;;;;5052603;28;20237;-86
2022/08/16 10:27:03;;;;;;;2.38;2.10;;;33.60;69.60;;;;;;5052936;28;20294;-85
2022/08/16 10:29:51;;;;;;;2.03;1.77;;;33.30;70.20;;;;;;5052985;28;20205;-86
2022/08/16 10:32:34;;;;;;;15.27;2.28;;;33.00;70.40;;;;;;5052557;28;20241;-86
2022/08/16 10:35:07;;;;;;;4.63;1.67;;;32.90;72.30;;;;;;5053070;28;20201;-86
2022/08/16 10:37:35;;;;;;;2.17;1.98;;;32.90;71.20;;;;;;5052382;28;20255;-86
2022/08/16 10:40:06;;;;;;;2.15;1.83;;;33.40;71.60;;;;;;5052549;28;20269;-86
2022/08/16 10:42:58;;;;;;;2.08;1.98;;;33.80;69.40;;;;;;5052853;28;20209;-86
2022/08/16 10:45:28;;;;;;;2.40;2.20;;;33.90;69.20;;;;;;5053194;28;20217;-87
2022/08/16 10:48:06;;;;;;;2.58;2.20;;;34.20;68.90;;;;;;5052269;28;20236;-87
2022/08/16 10:50:56;;;;;;;1.83;1.73;;;34.00;68.70;;;;;;5052127;28;20225;-86
2022/08/16 10:53:26;;;;;;;1.83;1.63;;;34.20;68.70;;;;;;5052747;28;20292;-87
2022/08/16 10:56:01;;;;;;;1.88;1.77;;;34.30;68.20;;;;;;5052180;28;20239;-86
2022/08/16 10:58:34;;;;;;;2.03;1.92;;;34.40;67.30;;;;;;5051838;28;20308;-86
2022/08/16 11:01:04;;;;;;;2.15;1.70;;;33.90;67.90;;;;;;5052384;28;20234;-87
2022/08/16 11:03:53;;;;;;;2.45;2.25;;;33.50;68.80;;;;;;5052407;28;20202;-87
2022/08/16 11:06:25;;;;;;;1.70;1.60;;;33.30;68.60;;;;;;5052505;28;20209;-87
2022/08/16 11:08:57;;;;;;;2.40;2.20;;;33.20;68.80;;;;;;5052278;28;20277;-87
2022/08/16 11:11:45;;;;;;;2.10;2.00;;;33.10;69.40;;;;;;5051824;28;20222;-86
2022/08/16 11:14:35;;;;;;;2.78;1.88;;;33.10;69.60;;;;;;5052430;28;20224;-87
2022/08/16 11:17:06;;;;;;;1.83;1.73;;;33.50;69.00;;;;;;5052136;28;20209;-86
2022/08/16 11:19:40;;;;;;;2.22;1.88;;;33.80;69.00;;;;;;5052157;28;20232;-87
2022/08/16 11:22:28;;;;;;;1.75;1.65;;;34.00;67.90;;;;;;5052033;28;20229;-87
2022/08/16 11:25:18;;;;;;;1.88;1.77;;;33.90;68.10;;;;;;5051970;28;20209;-87
2022/08/16 11:28:07;;;;;;;1.67;1.58;;;34.00;68.00;;;;;;5055728;28;20198;-87
2022/08/16 11:30:37;;;;;;;2.15;1.98;;;33.30;68.60;;;;;;5055373;28;20256;-87
2022/08/16 11:33:07;;;;;;;2.03;1.92;;;33.40;69.30;;;;;;5056021;28;20256;-88
2022/08/16 11:35:40;;;;;;;2.00;1.90;;;33.80;68.30;;;;;;5056022;28;20212;-87
2022/08/16 11:38:28;;;;;;;14.13;2.22;;;34.20;67.80;;;;;;5055739;28;20228;-87
2022/08/16 11:41:16;;;;;;;3.20;2.05;;;34.20;67.60;;;;;;5056053;28;20225;-88
2022/08/16 11:43:46;;;;;;;1.85;1.75;;;34.70;66.30;;;;;;5055912;28;20288;-87
2022/08/16 11:46:16;;;;;;;1.90;1.80;;;35.10;65.40;;;;;;5055243;28;20296;-87
2022/08/16 11:49:05;;;;;;;1.75;1.65;;;35.50;65.20;;;;;;5054781;28;20201;-87
2022/08/16 11:51:42;;;;;;;1.73;1.63;;;35.40;65.30;;;;;;5055178;28;20225;-88
2022/08/16 11:54:11;;;;;;;1.80;1.70;;;35.10;64.90;;;;;;5055441;28;20202;-87
2022/08/16 11:56:50;;;;;;;2.03;1.80;;;35.10;65.70;;;;;;5055645;28;20212;-88
2022/08/16 11:59:26;;;;;;;3.85;1.70;;;35.20;64.10;;;;;;5054874;28;20221;-86
2022/08/16 12:01:57;;;;;;;2.03;1.83;;;35.50;64.10;;;;;;5055147;28;20229;-87
2022/08/16 12:04:46;;;;;;;1.63;1.52;;;35.10;63.70;;;;;;5054841;28;20206;-87
2022/08/16 12:07:21;;;;;;;1.85;1.67;;;35.00;64.00;;;;;;5054969;28;20218;-87
2022/08/16 12:09:51;;;;;;;2.72;1.67;;;35.20;64.10;;;;;;5054371;28;20229;-88
2022/08/16 12:12:20;;;;;;;1.42;1.40;;;35.70;62.50;;;;;;5054692;28;20244;-87
2022/08/16 12:14:51;;;;;;;2.97;2.03;;;35.70;62.30;;;;;;5054888;28;20292;-87
2022/08/16 12:17:29;;;;;;;1.95;1.70;;;36.00;62.40;;;;;;5054869;28;20209;-87
2022/08/16 12:19:59;;;;;;;1.80;1.70;;;36.40;62.80;;;;;;5055179;28;20229;-88
2022/08/16 12:22:27;;;;;;;2.10;2.00;;;36.60;61.40;;;;;;5054591;28;20225;-87
2022/08/16 12:24:56;;;;;;;1.85;1.73;;;36.00;62.40;;;;;;5054868;28;20288;-87
2022/08/16 12:27:25;;;;;;;2.40;1.92;;;35.70;61.90;;;;;;5054926;28;20299;-87
2022/08/16 12:29:54;;;;;;;1.67;1.58;;;35.20;63.10;;;;;;5064137;28;20292;-88
2022/08/16 12:32:25;;;;;;;1.80;1.70;;;35.20;63.40;;;;;;5074847;28;20233;-87
2022/08/16 12:35:12;;;;;;;1.98;1.88;;;35.40;63.10;;;;;;5058357;28;20208;-88
2022/08/16 12:37:42;;;;;;;2.45;1.77;;;35.50;62.70;;;;;;5053928;28;20205;-88
2022/08/16 12:40:19;;;;;;;2.30;2.10;;;35.80;62.40;;;;;;5054229;28;20213;-88
2022/08/16 12:42:54;;;;;;;2.42;2.22;;;36.00;59.40;;;;;;5054257;28;20220;-87
2022/08/16 12:45:27;;;;;;;1.92;1.83;;;36.40;60.10;;;;;;5054778;28;20278;-86
2022/08/16 12:51:22;;;;;;;2.40;2.22;;;37.20;58.20;;;;;;5055083;28;20254;-87
2022/08/16 12:54:16;;;;;;;2.42;2.10;;;37.50;58.10;;;;;;5053957;28;20204;-88
2022/08/16 12:56:45;;;;;;;1.98;1.88;;;37.40;58.40;;;;;;5054094;28;20202;-87
2022/08/16 12:59:14;;;;;;;2.33;2.13;;;36.80;58.60;;;;;;5053522;28;20312;-86
2022/08/16 13:01:48;;;;;;;2.75;2.30;;;36.50;58.90;;;;;;5054081;28;20229;-87
2022/08/16 13:04:22;;;;;;;2.28;2.17;;;36.30;58.70;;;;;;5053850;28;20205;-87
2022/08/16 13:06:54;;;;;;;2.03;1.92;;;35.90;58.60;;;;;;5053815;28;20282;-87
2022/08/16 13:09:23;;;;;;;1.70;1.60;;;35.70;58.40;;;;;;5053912;28;20210;-87
2022/08/16 13:12:01;;;;;;;1.83;1.73;;;35.50;58.60;;;;;;5053463;28;20233;-88
2022/08/16 13:14:33;;;;;;;2.13;2.00;;;35.50;59.80;;;;;;5053732;28;20239;-87
2022/08/16 13:17:03;;;;;;;1.83;1.63;;;35.20;58.70;;;;;;5053985;28;20288;-87
2022/08/16 13:19:34;;;;;;;2.97;2.00;;;34.80;59.30;;;;;;5053257;28;20225;-88
2022/08/16 13:22:25;;;;;;;2.03;1.80;;;34.40;59.90;;;;;;5053232;28;20240;-87
2022/08/16 13:24:53;;;;;;;2.38;1.77;;;34.50;60.70;;;;;;5053632;28;20351;-88
2022/08/16 13:27:23;;;;;;;1.83;1.73;;;34.40;60.60;;;;;;5053593;28;20208;-87
2022/08/16 13:30:12;;;;;;;2.45;2.25;;;34.70;60.10;;;;;;5053300;28;20201;-87
2022/08/16 13:33:00;;;;;;;2.40;2.20;;;34.70;59.50;;;;;;5053659;28;20209;-87
2022/08/16 13:35:38;;;;;;;1.83;1.73;;;34.30;59.80;;;;;;5053588;28;20251;-90